createdAt,value
2018-08-03T00:01:35.403Z,14.87
2018-08-03T00:04:03.815Z,14.65
2018-08-03T00:06:32.102Z,14.70
2018-08-03T00:09:09.087Z,15.80
2018-08-03T00:11:37.673Z,15.88
2018-08-03T00:14:06.089Z,15.80
2018-08-03T00:16:34.600Z,17.25
2018-08-03T00:19:02.675Z,16.12
2018-08-03T00:21:31.209Z,16.32
2018-08-03T00:23:59.613Z,17.50
2018-08-03T00:26:28.199Z,17.70
2018-08-03T00:28:56.797Z,15.88
2018-08-03T00:31:25.190Z,16.45
2018-08-03T00:33:57.692Z,16.42
2018-08-03T00:36:26.072Z,16.42
2018-08-03T00:38:54.385Z,16.35
2018-08-03T00:41:22.693Z,16.20
2018-08-03T00:43:56.498Z,16.17
2018-08-03T00:46:24.833Z,16.20
2018-08-03T00:48:53.323Z,17.40
2018-08-03T00:51:21.594Z,17.00
2018-08-03T00:53:50.028Z,17.00
2018-08-03T00:56:18.383Z,17.37
2018-08-03T00:58:46.798Z,17.65
2018-08-03T01:01:15.098Z,17.23
2018-08-03T01:03:43.751Z,17.10
2018-08-03T01:06:12.117Z,17.40
2018-08-03T01:08:40.501Z,17.40
2018-08-03T01:11:09.729Z,18.10
2018-08-03T01:13:38.230Z,18.65
2018-08-03T01:16:06.298Z,19.30
2018-08-03T01:18:34.610Z,18.60
2018-08-03T01:21:03.133Z,19.00
2018-08-03T01:23:31.623Z,18.52
2018-08-03T01:25:59.736Z,18.42
2018-08-03T01:28:29.075Z,19.40
2018-08-03T01:30:57.552Z,18.55
2018-08-03T01:33:32.803Z,19.15
2018-08-03T01:36:01.204Z,18.57
2018-08-03T01:38:29.296Z,18.67
2018-08-03T01:40:57.390Z,19.87
2018-08-03T01:43:26.504Z,18.32
2018-08-03T01:45:54.987Z,18.15
2018-08-03T01:48:23.503Z,18.52
2018-08-03T01:50:51.601Z,18.48
2018-08-03T01:53:20.083Z,18.57
2018-08-03T01:55:48.486Z,17.05
2018-08-03T01:58:17.016Z,17.57
2018-08-03T02:00:45.374Z,17.80
2018-08-03T02:03:13.637Z,18.02
2018-08-03T02:05:42.103Z,18.00
2018-08-03T02:08:10.503Z,17.92
2018-08-03T02:10:38.941Z,18.02
2018-08-03T02:13:07.267Z,18.17
2018-08-03T02:15:35.676Z,18.07
2018-08-03T02:18:04.206Z,18.20
2018-08-03T02:20:32.388Z,19.20
2018-08-03T02:23:00.986Z,17.92
2018-08-03T02:25:29.484Z,18.40
2018-08-03T02:27:57.802Z,18.48
2018-08-03T02:30:26.410Z,17.75
2018-08-03T02:32:55.260Z,18.17
2018-08-03T02:35:23.505Z,19.07
2018-08-03T02:37:51.588Z,19.30
2018-08-03T02:40:19.904Z,20.48
2018-08-03T02:42:48.516Z,18.77
2018-08-03T02:45:16.901Z,19.12
2018-08-03T02:47:44.994Z,19.07
2018-08-03T02:50:18.382Z,19.07
2018-08-03T02:52:46.799Z,19.37
2018-08-03T02:55:25.030Z,19.80
2018-08-03T02:57:53.305Z,19.57
2018-08-03T03:00:21.445Z,19.05
2018-08-03T03:02:49.792Z,19.30
2018-08-03T03:05:18.074Z,19.80
2018-08-03T03:07:46.397Z,19.57
2018-08-03T03:10:14.687Z,19.70
2018-08-03T03:12:43.112Z,19.40
2018-08-03T03:15:11.727Z,19.50
2018-08-03T03:17:40.100Z,19.65
2018-08-03T03:20:08.383Z,19.50
2018-08-03T03:22:36.824Z,20.13
2018-08-03T03:25:05.293Z,19.05
2018-08-03T03:27:33.688Z,20.97
2018-08-03T03:30:02.130Z,20.20
2018-08-03T03:32:37.669Z,19.73
2018-08-03T03:35:06.065Z,19.52
2018-08-03T03:37:34.053Z,19.20
2018-08-03T03:40:02.137Z,18.92
2018-08-03T03:42:30.439Z,19.15
2018-08-03T03:44:58.536Z,19.30
2018-08-03T03:47:26.854Z,19.95
2018-08-03T03:49:55.228Z,19.32
2018-08-03T03:52:23.435Z,19.20
2018-08-03T03:54:51.629Z,19.93
2018-08-03T03:57:20.447Z,20.57
2018-08-03T03:59:48.405Z,19.85
2018-08-03T04:02:18.555Z,20.37
2018-08-03T04:04:46.948Z,19.20
2018-08-03T04:07:15.225Z,20.27
2018-08-03T04:09:43.241Z,20.00
2018-08-03T04:12:11.478Z,20.17
2018-08-03T04:14:39.757Z,20.05
2018-08-03T04:17:08.039Z,20.90
2018-08-03T04:19:36.501Z,20.30
2018-08-03T04:22:04.927Z,19.80
2018-08-03T04:24:33.043Z,25.60
2018-08-03T04:27:00.928Z,21.90
2018-08-03T04:29:29.438Z,21.48
2018-08-03T04:32:00.070Z,19.85
2018-08-03T04:34:28.194Z,20.35
2018-08-03T04:36:56.591Z,22.77
2018-08-03T04:39:28.677Z,20.90
2018-08-03T04:41:57.558Z,21.70
2018-08-03T04:44:25.767Z,21.10
2018-08-03T04:46:54.267Z,20.12
2018-08-03T04:49:22.877Z,20.17
2018-08-03T04:51:51.472Z,19.60
2018-08-03T04:54:19.465Z,19.73
2018-08-03T04:56:48.063Z,19.30
2018-08-03T04:59:16.553Z,20.10
2018-08-03T05:01:45.072Z,18.27
2018-08-03T05:04:13.154Z,19.55
2018-08-03T05:06:41.351Z,19.37
2018-08-03T05:09:09.749Z,18.55
2018-08-03T05:11:38.444Z,19.20
2018-08-03T05:14:06.626Z,18.98
2018-08-03T05:16:34.943Z,18.60
2018-08-03T05:19:03.230Z,20.23
2018-08-03T05:21:31.664Z,19.48
2018-08-03T05:24:01.108Z,19.82
2018-08-03T05:26:29.585Z,19.65
2018-08-03T05:28:58.495Z,18.90
2018-08-03T05:31:33.953Z,19.82
2018-08-03T05:34:02.486Z,19.57
2018-08-03T05:36:30.651Z,18.48
2018-08-03T05:38:58.980Z,19.00
2018-08-03T05:41:27.246Z,19.50
2018-08-03T05:43:55.745Z,19.27
2018-08-03T05:46:25.653Z,20.37
2018-08-03T05:48:54.085Z,18.82
2018-08-03T05:51:23.107Z,19.60
2018-08-03T05:53:51.711Z,19.65
2018-08-03T05:56:20.189Z,21.15
2018-08-03T05:58:48.282Z,19.62
2018-08-03T06:01:16.815Z,19.80
2018-08-03T06:03:45.111Z,18.85
2018-08-03T06:06:13.676Z,18.95
2018-08-03T06:08:42.095Z,19.93
2018-08-03T06:11:10.917Z,20.30
2018-08-03T06:13:39.417Z,19.20
2018-08-03T06:16:08.074Z,20.50
2018-08-03T06:18:36.720Z,20.85
2018-08-03T06:21:09.108Z,20.80
2018-08-03T06:23:37.301Z,18.92
2018-08-03T06:26:05.502Z,19.73
2018-08-03T06:28:33.467Z,18.73
2018-08-03T06:31:02.344Z,18.00
2018-08-03T06:33:30.685Z,18.35
2018-08-03T06:35:58.975Z,18.05
2018-08-03T06:38:27.274Z,17.70
2018-08-03T06:40:55.607Z,18.37
2018-08-03T06:43:23.981Z,18.65
2018-08-03T06:45:52.254Z,16.75
2018-08-03T06:48:20.702Z,15.70
2018-08-03T06:50:49.233Z,17.35
2018-08-03T06:53:17.695Z,16.57
2018-08-03T06:55:46.084Z,17.20
2018-08-03T06:58:14.470Z,15.98
2018-08-03T07:00:43.005Z,16.50
2018-08-03T07:03:11.484Z,15.07
2018-08-03T07:05:39.478Z,16.03
2018-08-03T07:08:07.450Z,14.20
2018-08-03T07:10:35.985Z,14.87
2018-08-03T07:13:04.477Z,14.93
2018-08-03T07:15:32.560Z,15.37
2018-08-03T07:18:00.410Z,15.30
2018-08-03T07:20:28.672Z,15.17
2018-08-03T07:22:58.066Z,14.43
2018-08-03T07:25:26.376Z,14.47
2018-08-03T07:27:54.849Z,16.70
2018-08-03T07:30:23.260Z,15.20
2018-08-03T07:32:51.665Z,15.13
2018-08-03T07:35:19.772Z,15.70
2018-08-03T07:37:47.964Z,12.87
2018-08-03T07:40:16.158Z,13.73
2018-08-03T07:42:44.345Z,12.73
2018-08-03T07:45:12.442Z,12.60
2018-08-03T07:47:40.628Z,13.23
2018-08-03T07:50:09.068Z,13.00
2018-08-03T07:52:37.604Z,13.47
2018-08-03T07:55:06.139Z,13.63
2018-08-03T07:57:34.871Z,12.17
2018-08-03T08:00:03.621Z,13.20
2018-08-03T08:02:32.070Z,13.50
2018-08-03T08:05:00.648Z,13.10
2018-08-03T08:07:29.378Z,13.50
2018-08-03T08:09:57.684Z,13.30
2018-08-03T08:12:26.058Z,15.17
2018-08-03T08:14:54.574Z,14.50
2018-08-03T08:17:22.771Z,13.37
2018-08-03T08:19:50.847Z,13.70
2018-08-03T08:22:19.063Z,13.00
2018-08-03T08:24:47.150Z,13.70
2018-08-03T08:27:15.770Z,14.97
2018-08-03T08:29:44.168Z,14.07
2018-08-03T08:32:12.444Z,15.37
2018-08-03T08:34:40.715Z,16.03
2018-08-03T08:37:09.143Z,14.73
2018-08-03T08:39:37.672Z,15.73
2018-08-03T08:42:06.258Z,14.10
2018-08-03T08:44:34.453Z,14.80
2018-08-03T08:47:03.672Z,14.93
2018-08-03T08:49:35.750Z,15.60
2018-08-03T08:52:04.228Z,16.17
2018-08-03T08:54:32.740Z,15.10
2018-08-03T08:57:01.055Z,17.60
2018-08-03T08:59:29.496Z,16.50
2018-08-03T09:01:57.545Z,15.03
2018-08-03T09:04:25.742Z,15.13
2018-08-03T09:06:53.941Z,14.77
2018-08-03T09:09:22.319Z,14.87
2018-08-03T09:11:50.934Z,14.80
2018-08-03T09:14:19.052Z,16.40
2018-08-03T09:16:47.437Z,17.20
2018-08-03T09:19:15.627Z,16.43
2018-08-03T09:21:43.702Z,18.97
2018-08-03T09:24:12.114Z,17.70
2018-08-03T09:26:40.214Z,18.30
2018-08-03T09:29:08.394Z,15.80
2018-08-03T09:31:36.488Z,15.63
2018-08-03T09:34:05.069Z,16.80
2018-08-03T09:36:33.467Z,15.20
2018-08-03T09:39:02.025Z,16.33
2018-08-03T09:41:30.224Z,15.10
2018-08-03T09:43:59.094Z,15.50
2018-08-03T09:46:27.512Z,16.33
2018-08-03T09:48:56.129Z,15.60
2018-08-03T09:51:24.626Z,16.63
2018-08-03T09:53:53.125Z,15.53
2018-08-03T09:56:21.503Z,15.47
2018-08-03T09:58:49.829Z,15.90
2018-08-03T10:01:18.228Z,14.67
2018-08-03T10:03:46.530Z,14.53
2018-08-03T10:06:14.902Z,14.73
2018-08-03T10:08:43.440Z,15.37
2018-08-03T10:11:11.916Z,15.80
2018-08-03T10:13:40.017Z,14.57
2018-08-03T10:16:08.495Z,15.67
2018-08-03T10:18:36.711Z,15.00
2018-08-03T10:21:05.617Z,14.50
2018-08-03T10:23:33.867Z,14.80
2018-08-03T10:26:02.535Z,14.30
2018-08-03T10:28:30.920Z,15.37
2018-08-03T10:30:59.544Z,16.00
2018-08-03T10:33:28.236Z,16.07
2018-08-03T10:35:56.510Z,15.73
2018-08-03T10:38:27.122Z,14.63
2018-08-03T10:40:55.712Z,16.73
2018-08-03T10:43:29.136Z,16.10
2018-08-03T10:45:57.385Z,14.63
2018-08-03T10:48:26.787Z,13.97
2018-08-03T10:50:55.646Z,15.03
2018-08-03T10:53:35.919Z,15.00
2018-08-03T10:56:04.392Z,14.97
2018-08-03T10:58:32.688Z,15.20
2018-08-03T11:01:01.087Z,16.00
2018-08-03T11:03:29.483Z,15.90
2018-08-03T11:05:58.173Z,16.43
2018-08-03T11:08:26.617Z,16.30
2018-08-03T11:10:55.008Z,16.60
2018-08-03T11:13:24.220Z,16.17
2018-08-03T11:15:55.871Z,16.57
2018-08-03T11:18:24.284Z,17.63
2018-08-03T11:20:53.480Z,18.33
2018-08-03T11:23:22.423Z,18.07
2018-08-03T11:25:50.895Z,16.60
2018-08-03T11:28:19.385Z,17.30
2018-08-03T11:30:48.036Z,17.50
2018-08-03T11:33:16.526Z,16.77
2018-08-03T11:35:45.061Z,17.20
2018-08-03T11:38:13.571Z,17.17
2018-08-03T11:40:42.011Z,18.37
2018-08-03T11:43:10.536Z,18.30
2018-08-03T11:45:39.321Z,18.30
2018-08-03T11:48:07.517Z,17.62
2018-08-03T11:50:36.047Z,16.73
2018-08-03T11:53:04.543Z,16.90
2018-08-03T11:55:32.883Z,16.97
2018-08-03T11:58:00.928Z,16.87
2018-08-03T12:00:29.100Z,16.30
2018-08-03T12:02:57.636Z,16.50
2018-08-03T12:05:26.122Z,17.55
2018-08-03T12:07:54.512Z,16.37
2018-08-03T12:10:23.125Z,16.83
2018-08-03T12:12:51.109Z,17.10
2018-08-03T12:15:19.403Z,15.37
2018-08-03T12:17:47.666Z,16.20
2018-08-03T12:20:16.429Z,16.52
2018-08-03T12:22:44.845Z,16.17
2018-08-03T12:25:13.102Z,15.35
2018-08-03T12:27:41.520Z,15.20
2018-08-03T12:30:10.233Z,14.97
2018-08-03T12:32:38.623Z,12.80
2018-08-03T12:35:06.416Z,12.53
2018-08-03T12:37:34.590Z,12.77
2018-08-03T12:40:04.060Z,12.40
2018-08-03T12:42:32.237Z,12.73
2018-08-03T12:45:00.712Z,12.60
2018-08-03T12:47:29.202Z,12.57
2018-08-03T12:49:57.499Z,14.00
2018-08-03T12:52:26.056Z,11.93
2018-08-03T12:54:54.513Z,11.17
2018-08-03T12:57:26.284Z,11.70
2018-08-03T12:59:54.798Z,11.48
2018-08-03T13:02:23.111Z,11.60
2018-08-03T13:04:53.530Z,12.30
2018-08-03T13:07:22.274Z,10.80
2018-08-03T13:09:50.558Z,10.90
2018-08-03T13:12:19.039Z,11.03
2018-08-03T13:14:47.543Z,10.80
2018-08-03T13:17:16.054Z,11.08
2018-08-03T13:19:44.165Z,10.82
2018-08-03T13:22:27.229Z,10.00
2018-08-03T13:24:55.329Z,9.50
2018-08-03T13:27:23.656Z,9.98
2018-08-03T13:29:52.174Z,10.03
2018-08-03T13:32:22.720Z,10.15
2018-08-03T13:34:51.303Z,9.85
2018-08-03T13:37:19.825Z,10.40
2018-08-03T13:39:53.137Z,10.60
2018-08-03T13:42:21.671Z,9.20
2018-08-03T13:44:50.044Z,9.50
2018-08-03T13:47:18.844Z,9.40
2018-08-03T13:49:46.868Z,9.93
2018-08-03T13:52:17.591Z,9.33
2018-08-03T13:54:45.941Z,9.15
2018-08-03T13:57:14.375Z,10.10
2018-08-03T13:59:42.469Z,11.25
2018-08-03T14:02:18.459Z,10.70
2018-08-03T14:04:46.991Z,10.23
2018-08-03T14:07:15.369Z,11.08
2018-08-03T14:09:43.776Z,11.20
2018-08-03T14:12:12.402Z,11.70
2018-08-03T14:14:41.303Z,11.77
2018-08-03T14:17:11.900Z,11.80
2018-08-03T14:19:40.945Z,11.25
2018-08-03T14:22:14.553Z,13.48
2018-08-03T14:24:43.081Z,12.15
2018-08-03T14:27:11.530Z,11.80
2018-08-03T14:29:45.336Z,12.03
2018-08-03T14:32:13.676Z,12.15
2018-08-03T14:34:41.951Z,11.57
2018-08-03T14:37:10.368Z,12.30
2018-08-03T14:39:38.789Z,12.25
2018-08-03T14:42:07.476Z,13.55
2018-08-03T14:44:35.881Z,13.80
2018-08-03T14:47:04.471Z,15.18
2018-08-03T14:49:33.197Z,13.72
2018-08-03T14:52:01.568Z,13.78
2018-08-03T14:54:29.584Z,13.28
2018-08-03T14:56:57.856Z,13.62
2018-08-03T14:59:26.412Z,14.10
2018-08-03T15:01:55.368Z,14.45
2018-08-03T15:04:23.589Z,14.55
2018-08-03T15:06:51.875Z,14.38
2018-08-03T15:09:20.075Z,14.30
2018-08-03T15:11:48.383Z,13.43
2018-08-03T15:14:16.892Z,13.53
2018-08-03T15:16:45.208Z,12.80
2018-08-03T15:19:13.837Z,12.60
2018-08-03T15:21:42.161Z,13.00
2018-08-03T15:24:10.038Z,12.33
2018-08-03T15:26:38.258Z,13.80
2018-08-03T15:29:06.865Z,13.28
2018-08-03T15:31:35.160Z,13.20
2018-08-03T15:34:03.542Z,12.47
2018-08-03T15:36:32.279Z,13.68
2018-08-03T15:39:00.441Z,12.75
2018-08-03T15:41:28.870Z,14.00
2018-08-03T15:43:57.171Z,13.83
2018-08-03T15:46:27.711Z,13.40
2018-08-03T15:48:56.091Z,15.95
2018-08-03T15:51:24.405Z,14.18
2018-08-03T15:53:52.688Z,13.20
2018-08-03T15:56:21.089Z,13.48
2018-08-03T15:58:50.202Z,12.90
2018-08-03T16:01:18.533Z,13.50
2018-08-03T16:03:46.899Z,12.98
2018-08-03T16:06:15.207Z,13.08
2018-08-03T16:08:43.727Z,13.30
2018-08-03T16:11:12.330Z,13.00
2018-08-03T16:13:40.618Z,13.22
2018-08-03T16:16:08.918Z,12.50
2018-08-03T16:18:37.190Z,12.37
2018-08-03T16:21:05.739Z,12.57
2018-08-03T16:23:34.624Z,13.13
2018-08-03T16:26:03.035Z,12.43
2018-08-03T16:28:31.629Z,12.60
2018-08-03T16:30:59.717Z,12.00
2018-08-03T16:33:28.122Z,12.37
2018-08-03T16:35:56.308Z,12.80
2018-08-03T16:38:24.734Z,12.60
2018-08-03T16:40:53.518Z,11.80
2018-08-03T16:43:21.950Z,12.28
2018-08-03T16:45:50.510Z,11.73
2018-08-03T16:48:19.027Z,11.80
2018-08-03T16:50:47.720Z,10.90
2018-08-03T16:53:15.891Z,11.70
2018-08-03T16:55:44.406Z,12.40
2018-08-03T16:58:12.938Z,12.10
2018-08-03T17:00:41.516Z,11.50
2018-08-03T17:03:10.334Z,11.20
2018-08-03T17:05:38.630Z,11.45
2018-08-03T17:08:06.944Z,11.30
2018-08-03T17:10:35.099Z,11.20
2018-08-03T17:13:03.469Z,11.10
2018-08-03T17:15:32.075Z,11.40
2018-08-03T17:18:00.638Z,11.50
2018-08-03T17:20:29.354Z,11.20
2018-08-03T17:22:57.606Z,10.72
2018-08-03T17:25:25.928Z,10.27
2018-08-03T17:27:54.538Z,11.35
2018-08-03T17:30:23.077Z,10.30
2018-08-03T17:32:51.574Z,10.50
2018-08-03T17:35:20.229Z,10.50
2018-08-03T17:37:49.065Z,11.00
2018-08-03T17:40:17.680Z,10.10
2018-08-03T17:42:45.882Z,10.40
2018-08-03T17:45:14.256Z,10.68
2018-08-03T17:47:42.448Z,11.28
2018-08-03T17:50:10.900Z,11.40
2018-08-03T17:52:39.169Z,11.83
2018-08-03T17:55:07.669Z,13.30
2018-08-03T17:57:36.357Z,12.20
2018-08-03T18:00:04.970Z,12.07
2018-08-03T18:02:33.012Z,12.05
2018-08-03T18:05:01.362Z,13.40
2018-08-03T18:07:30.676Z,11.90
2018-08-03T18:09:59.100Z,12.33
2018-08-03T18:12:27.504Z,13.35
2018-08-03T18:14:56.149Z,12.07
2018-08-03T18:17:24.717Z,13.08
2018-08-03T18:19:52.907Z,12.20
2018-08-03T18:22:21.424Z,12.30
2018-08-03T18:24:50.279Z,12.60
2018-08-03T18:27:18.804Z,13.83
2018-08-03T18:29:47.397Z,14.45
2018-08-03T18:32:15.707Z,14.00
2018-08-03T18:34:44.473Z,15.43
2018-08-03T18:37:12.917Z,13.40
2018-08-03T18:39:41.235Z,13.00
2018-08-03T18:42:11.838Z,13.58
2018-08-03T18:44:39.754Z,12.97
2018-08-03T18:47:08.272Z,12.70
2018-08-03T18:49:36.622Z,12.88
2018-08-03T18:52:04.961Z,13.00
2018-08-03T18:54:33.449Z,13.88
2018-08-03T18:57:02.977Z,12.80
2018-08-03T18:59:31.427Z,15.05
2018-08-03T19:01:59.840Z,14.50
2018-08-03T19:04:28.386Z,13.40
2018-08-03T19:06:57.100Z,12.60
2018-08-03T19:09:25.372Z,13.37
2018-08-03T19:11:54.704Z,13.40
2018-08-03T19:14:23.218Z,13.20
2018-08-03T19:16:51.891Z,13.53
2018-08-03T19:19:20.531Z,13.65
2018-08-03T19:21:49.582Z,14.10
2018-08-03T19:24:17.814Z,14.00
2018-08-03T19:26:46.420Z,13.30
2018-08-03T19:29:14.527Z,13.80
2018-08-03T19:31:42.924Z,13.50
2018-08-03T19:34:11.312Z,13.70
2018-08-03T19:36:39.424Z,14.15
2018-08-03T19:39:09.533Z,14.80
2018-08-03T19:41:37.971Z,15.20
2018-08-03T19:44:06.567Z,14.50
2018-08-03T19:46:35.069Z,15.00
2018-08-03T19:49:03.578Z,13.90
2018-08-03T19:51:32.062Z,14.40
2018-08-03T19:54:01.203Z,14.05
2018-08-03T19:56:30.186Z,14.00
2018-08-03T19:58:58.539Z,14.75
2018-08-03T20:01:27.082Z,14.45
2018-08-03T20:03:55.707Z,14.58
2018-08-03T20:06:24.340Z,15.13
2018-08-03T20:08:52.912Z,15.53
2018-08-03T20:11:21.386Z,14.65
2018-08-03T20:13:50.032Z,15.65
2018-08-03T20:16:18.744Z,15.80
2018-08-03T20:18:47.106Z,14.90
2018-08-03T20:21:15.734Z,15.65
2018-08-03T20:23:44.352Z,15.48
2018-08-03T20:26:12.617Z,14.10
2018-08-03T20:28:41.467Z,15.03
2018-08-03T20:31:10.208Z,14.60
2018-08-03T20:33:38.842Z,15.10
2018-08-03T20:36:06.956Z,15.32
2018-08-03T20:38:36.692Z,15.15
2018-08-03T20:41:05.285Z,15.10
2018-08-03T20:43:33.801Z,15.20
2018-08-03T20:46:02.162Z,16.02
2018-08-03T20:48:30.689Z,16.15
2018-08-03T20:50:58.986Z,15.40
2018-08-03T20:53:27.586Z,15.20
2018-08-03T20:55:56.204Z,15.77
2018-08-03T20:58:24.542Z,14.85
2018-08-03T21:00:52.739Z,16.20
2018-08-03T21:03:21.399Z,15.55
2018-08-03T21:05:49.900Z,16.37
2018-08-03T21:08:18.531Z,15.98
2018-08-03T21:10:47.976Z,16.20
2018-08-03T21:13:17.782Z,17.10
2018-08-03T21:15:46.330Z,16.40
2018-08-03T21:18:14.650Z,15.68
2018-08-03T21:20:43.149Z,16.70
2018-08-03T21:23:11.752Z,16.00
2018-08-03T21:25:39.850Z,17.05
2018-08-03T21:28:08.335Z,16.93
2018-08-03T21:30:36.349Z,16.50
2018-08-03T21:33:04.653Z,16.57
2018-08-03T21:35:33.154Z,16.60
2018-08-03T21:38:01.529Z,16.37
2018-08-03T21:40:30.146Z,16.40
2018-08-03T21:42:58.521Z,16.20
2018-08-03T21:45:27.997Z,16.90
2018-08-03T21:47:56.463Z,16.80
2018-08-03T21:50:24.757Z,17.20
2018-08-03T21:52:53.181Z,16.80
2018-08-03T21:55:21.770Z,16.48
2018-08-03T21:57:50.043Z,17.57
2018-08-03T22:00:20.234Z,17.02
2018-08-03T22:02:48.711Z,16.80
2018-08-03T22:05:17.609Z,16.85
2018-08-03T22:07:45.887Z,17.35
2018-08-03T22:10:14.200Z,17.57
2018-08-03T22:12:42.712Z,16.57
2018-08-03T22:15:11.323Z,17.12
2018-08-03T22:17:39.607Z,17.75
2018-08-03T22:20:07.595Z,17.82
2018-08-03T22:22:36.101Z,17.00
2018-08-03T22:25:05.104Z,18.75
2018-08-03T22:27:33.420Z,17.32
2018-08-03T22:30:01.397Z,17.57
2018-08-03T22:32:29.535Z,17.32
2018-08-03T22:34:58.308Z,17.60
2018-08-03T22:37:26.391Z,17.80
2018-08-03T22:39:55.067Z,18.98
2018-08-03T22:42:23.405Z,18.00
2018-08-03T22:44:51.911Z,18.42
2018-08-03T22:47:20.890Z,20.20
2018-08-03T22:49:49.346Z,18.62
2018-08-03T22:52:17.741Z,17.62
2018-08-03T22:54:46.305Z,17.47
2018-08-03T22:57:14.634Z,18.42
2018-08-03T22:59:42.914Z,18.82
2018-08-03T23:02:11.125Z,18.55
2018-08-03T23:04:40.705Z,17.52
2018-08-03T23:07:09.231Z,17.40
2018-08-03T23:09:37.751Z,18.12
2018-08-03T23:12:06.296Z,18.23
2018-08-03T23:14:35.170Z,17.23
2018-08-03T23:17:03.457Z,16.90
2018-08-03T23:19:31.977Z,16.90
2018-08-03T23:22:00.776Z,16.62
2018-08-03T23:24:29.257Z,16.85
2018-08-03T23:26:57.779Z,17.50
2018-08-03T23:29:26.513Z,16.40
2018-08-03T23:31:55.321Z,17.02
2018-08-03T23:34:23.898Z,17.00
2018-08-03T23:36:52.164Z,16.27
2018-08-03T23:39:20.670Z,17.02
2018-08-03T23:41:48.998Z,17.70
2018-08-03T23:44:17.583Z,17.50
2018-08-03T23:46:45.973Z,17.35
2018-08-03T23:49:14.310Z,17.57
2018-08-03T23:51:42.796Z,17.95
2018-08-03T23:54:11.185Z,17.80
2018-08-03T23:56:39.604Z,17.40
2018-08-03T23:59:08.210Z,17.67
